Terminal Aerodrome Forecast
Issued by NWS

Home | Current Version | Previous Version | Text Only | Print | Product List | Glossary On
Versions: 1 2 3 4 5 6 7 8 9 10 11 12 13 14 15 16
025
FTUS42 KGSP 110540
TAFAND
TAF
KAND 110540Z 1106/1206 VRB03KT P6SM SKC
     FM111700 04004KT P6SM -DZ OVC030
     FM112300 06004KT P6SM -DZ OVC015 PROB30 1200/1206 3SM -RA
      OVC008=

USA.gov is the U.S. government's official web portal to all federal, state and local government web resources and services.